Home > Products > Valid Products > TAF

000
FTUS43 KUNR 061220 AAB
TAFRAP
TAF AMD
KRAP 061220Z 0612/0712 14007KT 4SM -RA BR SCT007 OVC012
      TEMPO 0612/0616 2SM -RA BR OVC003
     FM062000 32017G27KT 5SM -TSRA OVC015CB=



000
FTUS43 KUNR 061220 AAB
TAFRAP
TAF AMD
KRAP 061220Z 0612/0712 14007KT 4SM -RA BR SCT007 OVC012
      TEMPO 0612/0616 2SM -RA BR OVC003
     FM062000 32017G27KT 5SM -TSRA OVC015CB=



000
FTUS43 KUNR 061130 AAA
TAFRAP
TAF AMD
KRAP 061130Z 0612/0712 14007KT 4SM -RA BR SCT007 OVC012
      TEMPO 0612/0616 OVC003
     FM062000 32017G27KT 5SM -TSRA OVC015CB=



000
FTUS43 KUNR 061120
TAFGCC
TAF
KGCC 061120Z 0612/0712 17008KT P6SM BKN015
     FM061500 33016G26KT 4SM -RA BR OVC015=



000
FTUS43 KUNR 061120
TAFRAP
TAF
KRAP 061120Z 0612/0712 14007KT 4SM -RA BR SCT007 OVC012
     FM062000 32017G27KT 5SM -TSRA OVC015CB=



000
FTUS43 KUNR 061120
TAFGCC
TAF
KGCC 061120Z 0612/0712 17008KT P6SM BKN015
     FM061500 33016G26KT 4SM -RA BR OVC015=



000
FTUS43 KUNR 061120
TAFRAP
TAF
KRAP 061120Z 0612/0712 14007KT 4SM -RA BR SCT007 OVC012
     FM062000 32017G27KT 5SM -TSRA OVC015CB=



000
FTUS43 KUNR 060520
TAFRAP
TAF
KRAP 060520Z 0606/0706 15010KT P6SM OVC040
      TEMPO 0606/0610 -SHRA OVC025
     FM061000 14007KT 5SM -RA BR OVC012=



000
FTUS43 KUNR 060520
TAFGCC
TAF
KGCC 060520Z 0606/0706 16014KT P6SM SCT040 BKN200
     FM061300 33015KT 4SM -RA BR OVC015=



000
FTUS43 KUNR 060236 AAA
TAFRAP
TAF AMD
KRAP 060236Z 0603/0624 17014KT P6SM OVC040
     FM060500 16009KT P6SM -SHRA OVC025
     FM060900 14007KT 5SM -RA BR OVC012=



000
FTUS43 KUNR 060236 AAA
TAFRAP
TAF AMD
KRAP 060236Z 0603/0624 17014KT P6SM OVC040
     FM060500 16009KT P6SM -SHRA OVC025
     FM060900 14007KT 5SM -RA BR OVC012=



000
FTUS43 KUNR 052324
TAFRAP
TAF
KRAP 052324Z 0600/0624 17014KT P6SM OVC035
     FM060300 16009KT P6SM -SHRA OVC025
     FM060900 14007KT 5SM -RA BR OVC012=



000
FTUS43 KUNR 052324
TAFGCC
TAF
KGCC 052324Z 0600/0624 15020G30KT P6SM BKN200
     FM060300 16012KT P6SM SCT040 BKN200
     FM061100 33015KT 4SM -RA BR OVC015=



000
FTUS43 KUNR 052324
TAFGCC
TAF
KGCC 052324Z 0600/0624 15020G30KT P6SM BKN200
     FM060300 16012KT P6SM SCT040 BKN200
     FM061100 33015KT 4SM -RA BR OVC015=



000
FTUS43 KUNR 052324
TAFRAP
TAF
KRAP 052324Z 0600/0624 17014KT P6SM OVC035
     FM060300 16009KT P6SM -SHRA OVC025
     FM060900 14007KT 5SM -RA BR OVC012=



000
FTUS43 KUNR 052100 AAA
TAFGCC
TAF AMD
KGCC 052100Z 0521/0618 15015G25KT P6SM SCT050
     FM060200 16011KT P6SM SCT040
     FM061100 33015KT 4SM -RA OVC080=



000
FTUS43 KUNR 052100 AAA
TAFGCC
TAF AMD
KGCC 052100Z 0521/0618 15015G25KT P6SM SCT050
     FM060200 16011KT P6SM SCT040
     FM061100 33015KT 4SM -RA OVC080=



000
FTUS43 KUNR 052058 AAA
TAFRAP
TAF AMD
KRAP 052058Z 0521/0618 18011KT P6SM OVC030
     FM060200 16009KT P6SM -SHRA OVC025
     FM060900 14007KT 5SM -RA OVC012=



000
FTUS43 KUNR 052058 AAA
TAFRAP
TAF AMD
KRAP 052058Z 0521/0618 18011KT P6SM OVC030
     FM060200 16009KT P6SM -SHRA OVC025
     FM060900 14007KT 5SM -RA OVC012=



000
FTUS43 KUNR 051723
TAFGCC
TAF
KGCC 051723Z 0518/0618 17018G28KT P6SM SKC
     FM060200 16011KT P6SM SCT040
     FM061100 33015KT 4SM -RA OVC080=



000
FTUS43 KUNR 051723
TAFRAP
TAF
KRAP 051723Z 0518/0618 14016KT P6SM BKN025
     FM052100 14016KT P6SM BKN035
     FM060200 14010KT P6SM -SHRA OVC025
     FM060900 14007KT 5SM -RA OVC012=



000
FTUS43 KUNR 051328 AAA
TAFGCC
TAF AMD
KGCC 051328Z 0513/0612 16018G28KT P6SM BKN200
      TEMPO 0513/0516 BKN010=



000
FTUS43 KUNR 051328 AAA
TAFGCC
TAF AMD
KGCC 051328Z 0513/0612 16018G28KT P6SM BKN200
      TEMPO 0513/0516 BKN010=



000
FTUS43 KUNR 051326 AAA
TAFRAP
TAF AMD
KRAP 051326Z 0513/0612 15007KT P6SM SCT060
     FM051500 17013KT P6SM OVC020
     FM051900 16015G25KT P6SM BKN040
     FM060100 14011KT P6SM -SHRA OVC025=



000
FTUS43 KUNR 051120
TAFGCC
TAF
KGCC 051120Z 0512/0612 16018G28KT P6SM BKN200
      TEMPO 0513/0516 BKN025=



000
FTUS43 KUNR 051120
TAFGCC
TAF
KGCC 051120Z 0512/0612 16018G28KT P6SM BKN200
      TEMPO 0513/0516 BKN025=



000
FTUS43 KUNR 051120
TAFRAP
TAF
KRAP 051120Z 0512/0612 16007KT P6SM SCT060
     FM051300 17013KT P6SM OVC020
     FM051900 16015G25KT P6SM BKN040
     FM060100 14011KT P6SM -SHRA OVC025=



000
FTUS43 KUNR 051120
TAFRAP
TAF
KRAP 051120Z 0512/0612 16007KT P6SM SCT060
     FM051300 17013KT P6SM OVC020
     FM051900 16015G25KT P6SM BKN040
     FM060100 14011KT P6SM -SHRA OVC025=



000
FTUS43 KUNR 050520
TAFGCC
TAF
KGCC 050520Z 0506/0606 16020G30KT P6SM BKN200
      TEMPO 0513/0517 BKN025=



000
FTUS43 KUNR 050520
TAFRAP
TAF
KRAP 050520Z 0506/0606 16007KT P6SM OVC050
     FM051300 16008KT P6SM OVC020
     FM051800 14018KT P6SM BKN040
     FM060100 12018KT P6SM -SHRA OVC025=



000
FTUS43 KUNR 042320
TAFGCC
TAF
KGCC 042320Z 0500/0524 16020G30KT P6SM SCT250
      TEMPO 0512/0516 BKN025=



000
FTUS43 KUNR 042320
TAFGCC
TAF
KGCC 042320Z 0500/0524 16020G30KT P6SM SCT250
      TEMPO 0512/0516 BKN025=



000
FTUS43 KUNR 042320
TAFRAP
TAF
KRAP 042320Z 0500/0524 14015KT P6SM BKN070
     FM050600 16007KT P6SM BKN100
     FM051100 16008KT P6SM BKN020
     FM051700 14017KT P6SM BKN035=



000
FTUS43 KUNR 042320
TAFRAP
TAF
KRAP 042320Z 0500/0524 14015KT P6SM BKN070
     FM050600 16007KT P6SM BKN100
     FM051100 16008KT P6SM BKN020
     FM051700 14017KT P6SM BKN035=



000
FTUS43 KUNR 042004 AAA
TAFRAP
TAF AMD
KRAP 042004Z 0420/0518 16014KT P6SM BKN060
     FM050600 16007KT P6SM SCT050=



000
FTUS43 KUNR 041720
TAFGCC
TAF
KGCC 041720Z 0418/0518 16023G33KT P6SM SCT050
     FM050000 16018G28KT P6SM SCT250=



000
FTUS43 KUNR 041720
TAFRAP
TAF
KRAP 041720Z 0418/0518 10009KT 6SM -SHRA OVC060
     FM042000 14016KT 6SM -SHRA BKN040 OVC060
     FM050000 14011KT P6SM BKN050
     FM050600 16007KT P6SM SCT050=



000
FTUS43 KUNR 041720
TAFRAP
TAF
KRAP 041720Z 0418/0518 10009KT 6SM -SHRA OVC060
     FM042000 14016KT 6SM -SHRA BKN040 OVC060
     FM050000 14011KT P6SM BKN050
     FM050600 16007KT P6SM SCT050=



000
FTUS43 KUNR 041720
TAFGCC
TAF
KGCC 041720Z 0418/0518 16023G33KT P6SM SCT050
     FM050000 16018G28KT P6SM SCT250=



000
FTUS43 KUNR 041143 AAA
TAFGCC
TAF AMD
KGCC 041143Z 0412/0512 15011KT P6SM BKN040
     FM041500 16023G33KT P6SM BKN050
     FM042300 16018G28KT P6SM BKN250=



000
FTUS43 KUNR 041120
TAFRAP
TAF
KRAP 041120Z 0412/0512 15008KT P6SM -SHRA OVC050
     FM041800 14015G25KT P6SM BKN100
     FM050100 14007KT P6SM BKN250=



000
FTUS43 KUNR 041120
TAFRAP
TAF
KRAP 041120Z 0412/0512 15008KT P6SM -SHRA OVC050
     FM041800 14015G25KT P6SM BKN100
     FM050100 14007KT P6SM BKN250=



000
FTUS43 KUNR 041120
TAFGCC
TAF
KGCC 041120Z 0412/0512 16023G33KT P6SM BKN050
     FM042300 16018G28KT P6SM BKN250=



000
FTUS43 KUNR 041120
TAFGCC
TAF
KGCC 041120Z 0412/0512 16023G33KT P6SM BKN050
     FM042300 16018G28KT P6SM BKN250=



000
FTUS43 KUNR 040520
TAFGCC
TAF
KGCC 040520Z 0406/0506 12012KT P6SM -SHRA OVC040
     FM041200 16012KT P6SM BKN040
     FM041600 16020KT P6SM BKN050=



000
FTUS43 KUNR 040520
TAFRAP
TAF
KRAP 040520Z 0406/0506 06009KT P6SM BKN150
     FM041000 09009KT P6SM OVC050
      TEMPO 0410/0414 -SHRA
     FM041700 14014KT P6SM BKN100=



000
FTUS43 KUNR 040520
TAFGCC
TAF
KGCC 040520Z 0406/0506 12012KT P6SM -SHRA OVC040
     FM041200 16012KT P6SM BKN040
     FM041600 16020KT P6SM BKN050=



000
FTUS43 KUNR 040520
TAFRAP
TAF
KRAP 040520Z 0406/0506 06009KT P6SM BKN150
     FM041000 09009KT P6SM OVC050
      TEMPO 0410/0414 -SHRA
     FM041700 14014KT P6SM BKN100=



000
FTUS43 KUNR 040438 AAA
TAFGCC
TAF AMD
KGCC 040438Z 0405/0424 08010KT P6SM -SHRA OVC050
     FM040700 14013KT P6SM -SHRA OVC040
     FM041500 16020KT P6SM BKN040=



000
FTUS43 KUNR 032320
TAFGCC
TAF
KGCC 032320Z 0400/0424 08010KT P6SM BKN060
     FM040600 14013KT P6SM -SHRA OVC040
     FM041500 16020KT P6SM BKN040=



000
FTUS43 KUNR 032320
TAFGCC
TAF
KGCC 032320Z 0400/0424 08010KT P6SM BKN060
     FM040600 14013KT P6SM -SHRA OVC040
     FM041500 16020KT P6SM BKN040=



000
FTUS43 KUNR 032320
TAFRAP
TAF
KRAP 032320Z 0400/0424 05014KT P6SM SCT070 BKN150
     FM040200 07007KT P6SM BKN150
     FM041200 15014KT P6SM BKN050
      TEMPO 0412/0416 -SHRA=



000
FTUS43 KUNR 032320
TAFRAP
TAF
KRAP 032320Z 0400/0424 05014KT P6SM SCT070 BKN150
     FM040200 07007KT P6SM BKN150
     FM041200 15014KT P6SM BKN050
      TEMPO 0412/0416 -SHRA=



000
FTUS43 KUNR 031742
TAFRAP
TAF
KRAP 031742Z 0318/0418 02015G25KT P6SM SCT200
     FM040000 07007KT P6SM BKN250=



000
FTUS43 KUNR 031742
TAFRAP
TAF
KRAP 031742Z 0318/0418 02015G25KT P6SM SCT200
     FM040000 07007KT P6SM BKN250=



000
FTUS43 KUNR 031742
TAFGCC
TAF
KGCC 031742Z 0318/0418 04010G18KT P6SM BKN200
     FM032100 10010KT P6SM BKN050
     FM040600 14013KT P6SM OVC040
      TEMPO 0407/0411 -SHRA=



000
FTUS43 KUNR 031742
TAFGCC
TAF
KGCC 031742Z 0318/0418 04010G18KT P6SM BKN200
     FM032100 10010KT P6SM BKN050
     FM040600 14013KT P6SM OVC040
      TEMPO 0407/0411 -SHRA=



    US Dept of Commerce
    National Oceanic and Atmospheric Administration
    National Weather Service
    1325 East West Highway
    Silver Spring, MD 20910
    Page Author: NWS Internet Services Team
Disclaimer
Information Quality
Credits
Glossary
Privacy Policy
Freedom of Information Act (FOIA)
About Us
Career Opportunities